sensor_id;sensor_type;location;lat;lon;timestamp;pressure;altitude;pressure_sealevel;temperature;humidity
20105;BME280;10212;42.714;23.310;2023-01-28T00:08:13;94540.59;;;-1.19;95.96
20105;BME280;10212;42.714;23.310;2023-01-28T00:18:14;94555.88;;;-1.09;95.49
20105;BME280;10212;42.714;23.310;2023-01-28T00:28:14;94554.84;;;-1.16;95.11
20105;BME280;10212;42.714;23.310;2023-01-28T00:38:15;94570.50;;;-1.19;95.55
20105;BME280;10212;42.714;23.310;2023-01-28T00:48:15;94564.53;;;-1.10;95.11
20105;BME280;10212;42.714;23.310;2023-01-28T00:58:15;94580.44;;;-1.16;95.03
20105;BME280;10212;42.714;23.310;2023-01-28T01:08:16;94570.94;;;-1.06;95.33
20105;BME280;10212;42.714;23.310;2023-01-28T01:18:16;94582.06;;;-1.15;95.58
20105;BME280;10212;42.714;23.310;2023-01-28T01:28:18;94582.84;;;-1.15;95.45
20105;BME280;10212;42.714;23.310;2023-01-28T01:38:19;94581.72;;;-1.02;95.73
20105;BME280;10212;42.714;23.310;2023-01-28T01:48:25;94581.19;;;-1.06;95.46
20105;BME280;10212;42.714;23.310;2023-01-28T01:58:30;94589.81;;;-1.07;95.61
20105;BME280;10212;42.714;23.310;2023-01-28T02:08:32;94600.63;;;-1.13;95.21
20105;BME280;10212;42.714;23.310;2023-01-28T02:18:34;94603.47;;;-1.16;95.11
20105;BME280;10212;42.714;23.310;2023-01-28T02:28:45;94608.50;;;-1.25;95.26
20105;BME280;10212;42.714;23.310;2023-01-28T02:38:49;94608.34;;;-1.23;95.12
20105;BME280;10212;42.714;23.310;2023-01-28T02:48:52;94607.38;;;-1.12;94.30
20105;BME280;10212;42.714;23.310;2023-01-28T02:59:12;94616.84;;;-1.23;94.23
20105;BME280;10212;42.714;23.310;2023-01-28T03:09:30;94610.38;;;-1.27;94.04
20105;BME280;10212;42.714;23.310;2023-01-28T03:19:31;94619.41;;;-1.33;94.40
20105;BME280;10212;42.714;23.310;2023-01-28T03:29:53;94620.84;;;-1.58;94.32
20105;BME280;10212;42.714;23.310;2023-01-28T03:40:14;94628.53;;;-1.58;94.80
20105;BME280;10212;42.714;23.310;2023-01-28T03:50:15;94630.66;;;-1.43;94.71
20105;BME280;10212;42.714;23.310;2023-01-28T04:00:16;94631.63;;;-1.64;95.32
20105;BME280;10212;42.714;23.310;2023-01-28T04:10:17;94646.31;;;-1.66;95.22
20105;BME280;10212;42.714;23.310;2023-01-28T04:20:17;94647.91;;;-1.65;95.74
20105;BME280;10212;42.714;23.310;2023-01-28T04:30:18;94655.59;;;-1.65;94.90
20105;BME280;10212;42.714;23.310;2023-01-28T04:40:18;94674.31;;;-1.65;96.04
20105;BME280;10212;42.714;23.310;2023-01-28T04:50:19;94677.28;;;-1.79;97.30
20105;BME280;10212;42.714;23.310;2023-01-28T05:00:19;94679.28;;;-1.83;97.51
20105;BME280;10212;42.714;23.310;2023-01-28T05:10:23;94698.78;;;-1.82;97.02
20105;BME280;10212;42.714;23.310;2023-01-28T05:20:24;94703.66;;;-1.79;97.10
20105;BME280;10212;42.714;23.310;2023-01-28T05:30:24;94714.66;;;-1.78;96.23
20105;BME280;10212;42.714;23.310;2023-01-28T05:40:25;94719.00;;;-1.79;95.87
20105;BME280;10212;42.714;23.310;2023-01-28T05:50:25;94714.97;;;-1.72;95.42
20105;BME280;10212;42.714;23.310;2023-01-28T06:00:26;94732.97;;;-1.63;94.56
20105;BME280;10212;42.714;23.310;2023-01-28T06:10:26;94746.28;;;-1.79;95.36
20105;BME280;10212;42.714;23.310;2023-01-28T06:20:27;94755.88;;;-1.72;94.76
20105;BME280;10212;42.714;23.310;2023-01-28T06:30:27;94781.56;;;-1.63;94.93
20105;BME280;10212;42.714;23.310;2023-01-28T06:40:28;94788.66;;;-1.77;95.19
20105;BME280;10212;42.714;23.310;2023-01-28T06:50:28;94813.81;;;-1.82;95.40
20105;BME280;10212;42.714;23.310;2023-01-28T07:00:28;94816.25;;;-1.61;94.51
20105;BME280;10212;42.714;23.310;2023-01-28T07:10:29;94822.47;;;-1.53;94.07
20105;BME280;10212;42.714;23.310;2023-01-28T07:20:29;94847.50;;;-1.57;93.88
20105;BME280;10212;42.714;23.310;2023-01-28T07:30:30;94847.22;;;-1.34;93.55
20105;BME280;10212;42.714;23.310;2023-01-28T07:40:30;94857.59;;;-1.06;92.49
20105;BME280;10212;42.714;23.310;2023-01-28T07:50:33;94871.19;;;-0.86;90.23
20105;BME280;10212;42.714;23.310;2023-01-28T08:00:35;94866.75;;;-0.83;90.27
20105;BME280;10212;42.714;23.310;2023-01-28T08:10:36;94884.25;;;-0.79;90.01
20105;BME280;10212;42.714;23.310;2023-01-28T08:20:37;94891.19;;;-0.51;88.56
20105;BME280;10212;42.714;23.310;2023-01-28T08:30:39;94895.78;;;-0.07;86.74
20105;BME280;10212;42.714;23.310;2023-01-28T08:40:39;94894.94;;;0.31;84.22
20105;BME280;10212;42.714;23.310;2023-01-28T08:50:40;94888.34;;;0.46;83.05
20105;BME280;10212;42.714;23.310;2023-01-28T09:00:41;94895.91;;;0.48;82.70
20105;BME280;10212;42.714;23.310;2023-01-28T09:10:42;94903.75;;;-0.10;86.51
20105;BME280;10212;42.714;23.310;2023-01-28T09:20:42;94907.19;;;0.09;85.29
20105;BME280;10212;42.714;23.310;2023-01-28T09:30:43;94904.09;;;-0.33;87.27
20105;BME280;10212;42.714;23.310;2023-01-28T09:40:43;94901.94;;;-0.28;87.72
20105;BME280;10212;42.714;23.310;2023-01-28T09:50:47;94907.00;;;-0.08;87.86
20105;BME280;10212;42.714;23.310;2023-01-28T10:01:29;94903.78;;;-0.68;90.54
20105;BME280;10212;42.714;23.310;2023-01-28T10:11:48;94899.22;;;-0.84;91.20
20105;BME280;10212;42.714;23.310;2023-01-28T10:22:00;94890.84;;;-0.86;91.55
20105;BME280;10212;42.714;23.310;2023-01-28T10:32:05;94899.47;;;-0.19;89.65
20105;BME280;10212;42.714;23.310;2023-01-28T10:42:19;94893.34;;;-0.08;88.01
20105;BME280;10212;42.714;23.310;2023-01-28T10:52:25;94895.59;;;0.05;87.92
20105;BME280;10212;42.714;23.310;2023-01-28T11:02:30;94891.50;;;-0.16;87.98
20105;BME280;10212;42.714;23.310;2023-01-28T11:12:31;94893.13;;;0.13;86.25
20105;BME280;10212;42.714;23.310;2023-01-28T11:22:35;94886.03;;;0.71;84.38
20105;BME280;10212;42.714;23.310;2023-01-28T11:32:37;94876.66;;;0.99;82.61
20105;BME280;10212;42.714;23.310;2023-01-28T11:42:37;94878.69;;;1.13;82.21
20105;BME280;10212;42.714;23.310;2023-01-28T12:44:36;94887.59;;;0.82;82.45
20105;BME280;10212;42.714;23.310;2023-01-28T13:15:18;94916.94;;;0.52;82.09
20105;BME280;10212;42.714;23.310;2023-01-28T13:25:25;94917.34;;;0.29;83.50
20105;BME280;10212;42.714;23.310;2023-01-28T13:35:31;94930.31;;;-0.01;84.35
20105;BME280;10212;42.714;23.310;2023-01-28T13:45:33;94935.47;;;-0.11;84.63
20105;BME280;10212;42.714;23.310;2023-01-28T13:55:37;94941.75;;;0.05;85.60
20105;BME280;10212;42.714;23.310;2023-01-28T14:36:36;94995.41;;;-0.42;87.49
20105;BME280;10212;42.714;23.310;2023-01-28T14:46:47;95005.81;;;-0.63;88.26
20105;BME280;10212;42.714;23.310;2023-01-28T15:07:23;95022.25;;;-0.66;89.61
20105;BME280;10212;42.714;23.310;2023-01-28T15:17:26;95016.34;;;-0.76;89.29
20105;BME280;10212;42.714;23.310;2023-01-28T15:27:28;95030.59;;;-0.83;90.04
20105;BME280;10212;42.714;23.310;2023-01-28T15:37:29;95032.91;;;-0.80;89.16
20105;BME280;10212;42.714;23.310;2023-01-28T15:47:33;95036.94;;;-0.88;89.86
20105;BME280;10212;42.714;23.310;2023-01-28T15:57:34;95053.75;;;-0.95;91.31
20105;BME280;10212;42.714;23.310;2023-01-28T16:07:43;95062.53;;;-0.98;91.11
20105;BME280;10212;42.714;23.310;2023-01-28T16:17:47;95070.34;;;-0.89;91.34
20105;BME280;10212;42.714;23.310;2023-01-28T16:27:49;95076.94;;;-0.97;91.25
20105;BME280;10212;42.714;23.310;2023-01-28T16:37:50;95091.06;;;-1.02;91.84
20105;BME280;10212;42.714;23.310;2023-01-28T16:47:51;95094.84;;;-0.97;92.35
20105;BME280;10212;42.714;23.310;2023-01-28T16:57:53;95100.50;;;-1.03;92.44
20105;BME280;10212;42.714;23.310;2023-01-28T17:07:55;95111.16;;;-0.98;92.37
20105;BME280;10212;42.714;23.310;2023-01-28T17:17:58;95122.31;;;-0.99;93.28
20105;BME280;10212;42.714;23.310;2023-01-28T17:27:58;95127.34;;;-1.28;95.73
20105;BME280;10212;42.714;23.310;2023-01-28T17:38:00;95136.84;;;-1.40;97.08
20105;BME280;10212;42.714;23.310;2023-01-28T17:48:00;95142.72;;;-1.50;97.81
20105;BME280;10212;42.714;23.310;2023-01-28T17:58:02;95147.06;;;-1.40;97.22
20105;BME280;10212;42.714;23.310;2023-01-28T18:08:03;95147.63;;;-1.37;95.55
20105;BME280;10212;42.714;23.310;2023-01-28T18:18:03;95157.00;;;-1.47;95.73
20105;BME280;10212;42.714;23.310;2023-01-28T18:28:05;95167.97;;;-1.35;94.48
20105;BME280;10212;42.714;23.310;2023-01-28T18:38:09;95169.97;;;-1.39;94.77
20105;BME280;10212;42.714;23.310;2023-01-28T18:48:09;95180.81;;;-1.47;95.32
20105;BME280;10212;42.714;23.310;2023-01-28T18:58:10;95185.94;;;-1.47;94.93
20105;BME280;10212;42.714;23.310;2023-01-28T19:08:11;95182.03;;;-1.51;95.23
20105;BME280;10212;42.714;23.310;2023-01-28T19:18:11;95184.84;;;-1.54;95.74
20105;BME280;10212;42.714;23.310;2023-01-28T19:28:12;95198.53;;;-1.55;95.42
20105;BME280;10212;42.714;23.310;2023-01-28T19:38:12;95198.97;;;-1.50;95.18
20105;BME280;10212;42.714;23.310;2023-01-28T19:48:13;95206.97;;;-1.43;94.91
20105;BME280;10212;42.714;23.310;2023-01-28T19:58:16;95218.31;;;-1.36;94.54
20105;BME280;10212;42.714;23.310;2023-01-28T20:08:17;95223.88;;;-1.30;93.46
20105;BME280;10212;42.714;23.310;2023-01-28T20:18:18;95228.19;;;-1.31;93.51
20105;BME280;10212;42.714;23.310;2023-01-28T20:28:18;95236.31;;;-1.26;94.04
20105;BME280;10212;42.714;23.310;2023-01-28T20:38:19;95243.28;;;-1.28;94.33
20105;BME280;10212;42.714;23.310;2023-01-28T20:48:19;95259.66;;;-1.19;94.31
20105;BME280;10212;42.714;23.310;2023-01-28T20:58:20;95262.94;;;-1.28;95.01
20105;BME280;10212;42.714;23.310;2023-01-28T21:08:21;95263.25;;;-1.43;96.36
20105;BME280;10212;42.714;23.310;2023-01-28T21:18:22;95266.09;;;-1.36;96.47
20105;BME280;10212;42.714;23.310;2023-01-28T21:28:23;95275.13;;;-1.20;95.93
20105;BME280;10212;42.714;23.310;2023-01-28T21:38:23;95278.53;;;-1.31;96.40
20105;BME280;10212;42.714;23.310;2023-01-28T21:48:24;95280.41;;;-1.34;96.88
20105;BME280;10212;42.714;23.310;2023-01-28T21:58:25;95284.22;;;-1.28;97.15
20105;BME280;10212;42.714;23.310;2023-01-28T22:08:44;95278.41;;;-1.30;96.04
20105;BME280;10212;42.714;23.310;2023-01-28T22:18:44;95286.34;;;-1.33;95.53
20105;BME280;10212;42.714;23.310;2023-01-28T22:28:46;95291.06;;;-1.50;97.14
20105;BME280;10212;42.714;23.310;2023-01-28T22:38:47;95285.63;;;-1.56;97.71
20105;BME280;10212;42.714;23.310;2023-01-28T22:48:48;95290.44;;;-1.63;98.58
20105;BME280;10212;42.714;23.310;2023-01-28T22:58:53;95293.91;;;-1.64;99.04
20105;BME280;10212;42.714;23.310;2023-01-28T23:08:54;95293.09;;;-1.65;99.04
20105;BME280;10212;42.714;23.310;2023-01-28T23:18:55;95292.03;;;-1.62;98.85
20105;BME280;10212;42.714;23.310;2023-01-28T23:29:14;95288.78;;;-1.64;99.33
20105;BME280;10212;42.714;23.310;2023-01-28T23:39:14;95283.91;;;-1.56;99.07
20105;BME280;10212;42.714;23.310;2023-01-28T23:49:15;95286.66;;;-1.59;99.55
20105;BME280;10212;42.714;23.310;2023-01-28T23:59:15;95292.28;;;-1.65;99.67
